createdAt,value
2019-02-02T00:00:35.139Z,2.10
2019-02-02T00:03:04.001Z,2.30
2019-02-02T00:05:32.670Z,2.30
2019-02-02T00:08:01.325Z,2.10
2019-02-02T00:10:29.974Z,2.10
2019-02-02T00:12:58.649Z,2.10
2019-02-02T00:15:27.309Z,2.20
2019-02-02T00:17:56.579Z,2.20
2019-02-02T00:20:25.426Z,2.30
2019-02-02T00:22:54.354Z,2.20
2019-02-02T00:25:23.031Z,2.30
2019-02-02T00:27:52.997Z,2.40
2019-02-02T00:30:21.761Z,2.50
2019-02-02T00:32:50.445Z,2.50
2019-02-02T00:35:19.085Z,2.50
2019-02-02T00:37:47.737Z,2.50
2019-02-02T00:40:20.529Z,2.60
2019-02-02T00:42:49.201Z,2.50
2019-02-02T00:45:19.578Z,2.40
2019-02-02T00:47:48.325Z,2.60
2019-02-02T00:50:18.602Z,2.60
2019-02-02T00:52:47.254Z,2.60
2019-02-02T00:55:17.405Z,2.50
2019-02-02T00:57:53.672Z,2.50
2019-02-02T01:00:19.522Z,2.50
2019-02-02T01:02:48.394Z,2.50
2019-02-02T01:05:19.217Z,2.60
2019-02-02T01:07:48.081Z,2.60
2019-02-02T01:10:34.775Z,2.60
2019-02-02T01:13:03.789Z,2.50
2019-02-02T01:15:32.534Z,2.50
2019-02-02T01:18:01.279Z,2.60
2019-02-02T01:20:31.055Z,2.70
2019-02-02T01:22:59.725Z,2.70
2019-02-02T01:25:28.385Z,2.70
2019-02-02T01:28:04.767Z,2.70
2019-02-02T01:30:27.953Z,2.60
2019-02-02T01:32:56.710Z,2.30
2019-02-02T01:35:25.394Z,2.20
2019-02-02T01:37:54.234Z,2.20
2019-02-02T01:40:25.154Z,2.40
2019-02-02T01:42:53.833Z,2.50
2019-02-02T01:45:29.214Z,2.50
2019-02-02T01:47:57.983Z,2.60
2019-02-02T01:50:27.737Z,2.60
2019-02-02T01:52:56.387Z,2.60
2019-02-02T01:55:25.302Z,2.70
2019-02-02T01:57:53.945Z,2.50
2019-02-02T02:00:30.572Z,2.40
2019-02-02T02:02:59.205Z,2.40
2019-02-02T02:05:27.877Z,2.50
2019-02-02T02:07:56.650Z,2.60
2019-02-02T02:10:25.326Z,2.60
2019-02-02T02:12:53.977Z,2.50
2019-02-02T02:15:22.629Z,2.50
2019-02-02T02:17:51.297Z,2.50
2019-02-02T02:20:21.176Z,2.40
2019-02-02T02:22:51.441Z,2.40
2019-02-02T02:25:20.981Z,2.50
2019-02-02T02:27:50.061Z,2.50
2019-02-02T02:30:20.434Z,2.70
2019-02-02T02:32:49.150Z,2.70
2019-02-02T02:35:17.800Z,2.50
2019-02-02T02:37:46.570Z,2.50
2019-02-02T02:40:17.800Z,2.60
2019-02-02T02:42:46.453Z,2.60
2019-02-02T02:45:15.514Z,2.60
2019-02-02T02:47:44.393Z,2.70
2019-02-02T02:50:15.133Z,2.80
2019-02-02T02:52:43.817Z,2.70
2019-02-02T02:55:14.112Z,2.50
2019-02-02T02:57:42.762Z,2.50
2019-02-02T03:00:30.587Z,2.60
2019-02-02T03:02:59.361Z,2.60
2019-02-02T03:05:28.020Z,2.60
2019-02-02T03:07:56.682Z,2.60
2019-02-02T03:10:26.242Z,2.70
2019-02-02T03:12:55.390Z,2.80
2019-02-02T03:15:24.138Z,2.80
2019-02-02T03:17:52.990Z,2.80
2019-02-02T03:20:21.662Z,2.60
2019-02-02T03:22:50.351Z,2.50
2019-02-02T03:25:21.649Z,2.00
2019-02-02T03:27:50.326Z,1.90
2019-02-02T03:30:20.602Z,1.70
2019-02-02T03:32:49.478Z,1.70
2019-02-02T03:35:25.744Z,1.70
2019-02-02T03:37:54.517Z,1.70
2019-02-02T03:40:23.902Z,1.80
2019-02-02T03:42:52.650Z,1.70
2019-02-02T03:45:23.665Z,1.70
2019-02-02T03:47:53.457Z,1.80
2019-02-02T03:50:22.129Z,1.70
2019-02-02T03:52:51.079Z,1.60
2019-02-02T03:55:19.916Z,1.70
2019-02-02T03:57:48.594Z,1.80
2019-02-02T04:00:18.937Z,1.70
2019-02-02T04:02:47.621Z,1.70
2019-02-02T04:05:18.935Z,1.80
2019-02-02T04:07:47.697Z,2.10
2019-02-02T04:10:16.777Z,2.00
2019-02-02T04:12:45.573Z,2.30
2019-02-02T04:15:16.429Z,2.40
2019-02-02T04:17:45.085Z,2.60
2019-02-02T04:20:19.029Z,2.70
2019-02-02T04:22:47.712Z,2.60
2019-02-02T04:25:16.982Z,2.70
2019-02-02T04:27:45.650Z,2.80
2019-02-02T04:30:23.242Z,2.80
2019-02-02T04:32:52.028Z,2.70
2019-02-02T04:35:20.938Z,2.80
2019-02-02T04:37:49.604Z,2.80
2019-02-02T04:40:18.874Z,2.80
2019-02-02T04:42:47.550Z,2.80
2019-02-02T04:45:19.237Z,2.70
2019-02-02T04:47:47.908Z,2.60
2019-02-02T04:50:21.389Z,2.10
2019-02-02T04:52:50.155Z,1.90
2019-02-02T04:55:19.949Z,1.90
2019-02-02T04:57:48.574Z,1.90
2019-02-02T05:00:22.637Z,1.80
2019-02-02T05:02:51.713Z,1.60
2019-02-02T05:05:20.778Z,1.50
2019-02-02T05:07:49.618Z,1.40
2019-02-02T05:10:20.813Z,1.40
2019-02-02T05:12:49.461Z,1.40
2019-02-02T05:15:18.137Z,1.40
2019-02-02T05:17:46.909Z,1.60
2019-02-02T05:20:17.464Z,1.90
2019-02-02T05:22:46.115Z,2.10
2019-02-02T05:25:15.108Z,2.20
2019-02-02T05:27:43.776Z,2.30
2019-02-02T05:30:30.320Z,2.40
2019-02-02T05:32:58.988Z,2.50
2019-02-02T05:35:27.637Z,2.60
2019-02-02T05:37:56.296Z,2.70
2019-02-02T05:40:24.951Z,2.70
2019-02-02T05:42:53.679Z,2.70
2019-02-02T05:45:23.725Z,2.70
2019-02-02T05:47:52.398Z,2.60
2019-02-02T05:50:22.649Z,2.70
2019-02-02T05:52:51.642Z,2.80
2019-02-02T05:55:22.322Z,2.80
2019-02-02T05:57:51.119Z,2.90
2019-02-02T06:00:32.866Z,2.80
2019-02-02T06:03:01.538Z,2.80
2019-02-02T06:05:30.193Z,2.80
2019-02-02T06:07:58.897Z,2.80
2019-02-02T06:10:27.546Z,2.70
2019-02-02T06:12:56.301Z,2.70
2019-02-02T06:15:24.978Z,2.70
2019-02-02T06:17:53.638Z,2.80
2019-02-02T06:20:22.319Z,2.80
2019-02-02T06:22:50.968Z,2.70
2019-02-02T06:25:19.666Z,2.80
2019-02-02T06:27:48.366Z,2.70
2019-02-02T06:30:22.418Z,2.80
2019-02-02T06:32:51.248Z,2.80
2019-02-02T06:35:20.281Z,2.20
2019-02-02T06:37:48.956Z,2.00
2019-02-02T06:40:18.014Z,2.10
2019-02-02T06:42:46.694Z,2.30
2019-02-02T06:45:18.282Z,2.40
2019-02-02T06:47:46.970Z,2.00
2019-02-02T06:50:17.122Z,1.90
2019-02-02T06:52:45.887Z,1.80
2019-02-02T06:55:18.575Z,1.70
2019-02-02T06:57:47.268Z,1.90
2019-02-02T07:00:21.018Z,2.10
2019-02-02T07:02:50.088Z,2.20
2019-02-02T07:05:18.838Z,2.20
2019-02-02T07:07:47.528Z,2.40
2019-02-02T07:10:24.366Z,2.60
2019-02-02T07:12:53.013Z,2.10
2019-02-02T07:15:26.705Z,1.80
2019-02-02T07:17:55.480Z,1.60
2019-02-02T07:20:24.170Z,1.60
2019-02-02T07:22:53.093Z,1.60
2019-02-02T07:25:23.217Z,1.60
2019-02-02T07:27:52.149Z,1.50
2019-02-02T07:30:28.733Z,1.50
2019-02-02T07:32:53.164Z,1.50
2019-02-02T07:35:21.801Z,1.50
2019-02-02T07:37:50.454Z,1.40
2019-02-02T07:40:20.430Z,1.40
2019-02-02T07:42:49.488Z,1.30
2019-02-02T07:45:21.142Z,1.30
2019-02-02T07:47:49.922Z,1.30
2019-02-02T07:50:18.677Z,1.40
2019-02-02T07:52:47.353Z,1.70
2019-02-02T07:55:21.107Z,1.80
2019-02-02T07:57:49.767Z,2.10
2019-02-02T08:00:21.397Z,2.10
2019-02-02T08:02:50.069Z,2.30
2019-02-02T08:05:18.753Z,2.40
2019-02-02T08:07:47.429Z,2.40
2019-02-02T08:10:16.237Z,2.60
2019-02-02T08:12:44.891Z,2.50
2019-02-02T08:15:22.260Z,2.20
2019-02-02T08:17:50.943Z,2.50
2019-02-02T08:20:19.696Z,2.60
2019-02-02T08:22:48.369Z,2.70
2019-02-02T08:25:17.250Z,2.80
2019-02-02T08:27:46.056Z,2.60
2019-02-02T08:30:23.135Z,2.60
2019-02-02T08:32:51.772Z,2.70
2019-02-02T08:35:20.589Z,2.90
2019-02-02T08:37:49.444Z,2.80
2019-02-02T08:40:19.668Z,2.90
2019-02-02T08:42:48.355Z,2.90
2019-02-02T08:45:17.599Z,3.00
2019-02-02T08:47:46.289Z,3.10
2019-02-02T08:50:20.273Z,3.10
2019-02-02T08:52:48.942Z,3.10
2019-02-02T08:55:17.614Z,3.00
2019-02-02T08:57:46.282Z,3.00
2019-02-02T09:00:19.794Z,3.00
2019-02-02T09:02:48.731Z,3.00
2019-02-02T09:05:20.282Z,2.90
2019-02-02T09:07:48.933Z,2.90
2019-02-02T09:10:20.175Z,2.80
2019-02-02T09:12:48.822Z,2.90
2019-02-02T09:15:18.694Z,2.90
2019-02-02T09:17:47.597Z,3.00
2019-02-02T09:20:16.485Z,2.80
2019-02-02T09:22:45.750Z,2.80
2019-02-02T09:25:18.817Z,2.90
2019-02-02T09:27:47.544Z,3.00
2019-02-02T09:30:19.198Z,3.00
2019-02-02T09:32:47.949Z,3.00
2019-02-02T09:35:16.633Z,3.10
2019-02-02T09:37:45.295Z,2.90
2019-02-02T09:40:19.574Z,3.00
2019-02-02T09:42:48.430Z,3.00
2019-02-02T09:45:21.444Z,3.20
2019-02-02T09:47:50.593Z,3.20
2019-02-02T09:50:24.715Z,3.20
2019-02-02T09:52:53.494Z,3.30
2019-02-02T09:55:23.720Z,3.40
2019-02-02T09:57:54.952Z,3.30
2019-02-02T10:00:26.339Z,3.10
2019-02-02T10:02:54.997Z,2.90
2019-02-02T10:05:24.157Z,3.20
2019-02-02T10:07:52.825Z,3.20
2019-02-02T10:10:24.483Z,3.40
2019-02-02T10:12:53.163Z,3.50
2019-02-02T10:15:21.934Z,3.30
2019-02-02T10:17:50.990Z,3.00
2019-02-02T10:20:21.674Z,3.00
2019-02-02T10:22:50.361Z,3.10
2019-02-02T10:25:21.421Z,3.00
2019-02-02T10:27:50.112Z,2.70
2019-02-02T10:30:24.233Z,2.70
2019-02-02T10:32:52.907Z,2.90
2019-02-02T10:35:21.565Z,3.00
2019-02-02T10:37:50.249Z,2.90
2019-02-02T10:40:18.985Z,2.70
2019-02-02T10:42:47.657Z,2.50
2019-02-02T10:45:17.736Z,2.40
2019-02-02T10:47:46.754Z,2.40
2019-02-02T10:50:26.370Z,2.50
2019-02-02T10:52:55.208Z,2.40
2019-02-02T10:55:23.903Z,2.40
2019-02-02T10:57:52.554Z,2.40
2019-02-02T11:00:29.709Z,2.40
2019-02-02T11:02:58.570Z,2.30
2019-02-02T11:05:27.439Z,2.30
2019-02-02T11:07:56.222Z,2.30
2019-02-02T11:10:30.730Z,2.20
2019-02-02T11:13:00.027Z,2.20
2019-02-02T11:15:28.928Z,2.20
2019-02-02T11:17:57.624Z,2.20
2019-02-02T11:20:31.400Z,2.20
2019-02-02T11:23:00.114Z,2.20
2019-02-02T11:25:28.997Z,2.30
2019-02-02T11:27:57.757Z,2.30
2019-02-02T11:30:27.514Z,2.50
2019-02-02T11:32:56.306Z,2.50
2019-02-02T11:35:24.969Z,2.40
2019-02-02T11:37:53.762Z,2.30
2019-02-02T11:40:31.309Z,2.40
2019-02-02T11:43:00.244Z,2.40
2019-02-02T11:45:29.089Z,2.40
2019-02-02T11:47:57.746Z,2.40
2019-02-02T11:50:26.716Z,2.40
2019-02-02T11:52:55.409Z,2.40
2019-02-02T11:55:26.086Z,2.40
2019-02-02T11:57:55.090Z,2.50
2019-02-02T12:00:28.789Z,2.50
2019-02-02T12:02:57.442Z,2.40
2019-02-02T12:05:26.105Z,2.50
2019-02-02T12:07:54.880Z,2.50
2019-02-02T12:10:29.009Z,2.50
2019-02-02T12:12:57.770Z,2.60
2019-02-02T12:15:26.417Z,2.60
2019-02-02T12:17:55.273Z,2.60
2019-02-02T12:20:25.045Z,2.60
2019-02-02T12:22:53.848Z,2.60
2019-02-02T12:25:22.508Z,2.60
2019-02-02T12:27:51.254Z,2.70
2019-02-02T12:30:28.501Z,2.90
2019-02-02T12:32:57.161Z,2.80
2019-02-02T12:35:27.409Z,2.70
2019-02-02T12:37:56.057Z,2.70
2019-02-02T12:40:26.144Z,2.70
2019-02-02T12:42:54.994Z,2.70
2019-02-02T12:45:32.430Z,2.60
2019-02-02T12:48:01.078Z,2.60
2019-02-02T12:50:29.729Z,2.70
2019-02-02T12:52:58.418Z,2.70
2019-02-02T12:55:27.180Z,2.70
2019-02-02T12:57:55.856Z,2.60
2019-02-02T13:00:24.552Z,2.50
2019-02-02T13:02:53.206Z,2.50
2019-02-02T13:05:23.382Z,2.40
2019-02-02T13:07:52.111Z,2.40
2019-02-02T13:10:30.770Z,2.40
2019-02-02T13:12:59.533Z,2.40
2019-02-02T13:15:28.243Z,2.40
2019-02-02T13:17:57.135Z,2.50
2019-02-02T13:20:25.910Z,2.40
2019-02-02T13:22:54.586Z,2.40
2019-02-02T13:25:24.040Z,2.30
2019-02-02T13:27:52.810Z,2.30
2019-02-02T13:30:29.485Z,2.30
2019-02-02T13:32:58.150Z,2.30
2019-02-02T13:35:27.936Z,2.30
2019-02-02T13:37:56.594Z,2.20
2019-02-02T13:40:25.482Z,2.20
2019-02-02T13:42:54.234Z,2.10
2019-02-02T13:45:23.533Z,2.10
2019-02-02T13:47:52.514Z,2.10
2019-02-02T13:50:21.395Z,2.20
2019-02-02T13:52:52.047Z,2.10
2019-02-02T13:55:20.761Z,2.10
2019-02-02T13:57:49.429Z,2.10
2019-02-02T14:00:26.834Z,2.10
2019-02-02T14:03:02.828Z,2.10
2019-02-02T14:05:26.190Z,2.00
2019-02-02T14:07:55.270Z,2.00
2019-02-02T14:10:25.921Z,2.00
2019-02-02T14:12:54.599Z,2.10
2019-02-02T14:15:23.318Z,2.10
2019-02-02T14:17:52.016Z,2.10
2019-02-02T14:20:20.681Z,2.00
2019-02-02T14:22:49.417Z,2.00
2019-02-02T14:25:18.694Z,2.00
2019-02-02T14:27:47.717Z,2.00
2019-02-02T14:30:22.067Z,1.90
2019-02-02T14:32:50.713Z,1.90
2019-02-02T14:35:22.318Z,1.80
2019-02-02T14:37:50.998Z,1.80
2019-02-02T14:40:20.919Z,1.80
2019-02-02T14:42:49.697Z,1.70
2019-02-02T14:45:23.256Z,1.70
2019-02-02T14:47:52.098Z,1.60
2019-02-02T14:50:21.958Z,1.60
2019-02-02T14:52:51.953Z,1.50
2019-02-02T14:55:23.097Z,1.50
2019-02-02T14:57:52.372Z,1.50
2019-02-02T15:00:23.310Z,1.60
2019-02-02T15:02:51.980Z,1.50
2019-02-02T15:05:21.784Z,1.50
2019-02-02T15:07:50.445Z,1.50
2019-02-02T15:10:19.802Z,1.50
2019-02-02T15:12:48.702Z,1.50
2019-02-02T15:15:17.930Z,1.40
2019-02-02T15:17:46.612Z,1.40
2019-02-02T15:20:18.317Z,1.40
2019-02-02T15:22:47.022Z,1.30
2019-02-02T15:25:15.673Z,1.30
2019-02-02T15:27:44.355Z,1.30
2019-02-02T15:30:15.618Z,1.30
2019-02-02T15:32:44.304Z,1.30
2019-02-02T15:35:14.207Z,1.20
2019-02-02T15:37:43.172Z,1.20
2019-02-02T15:40:14.813Z,1.20
2019-02-02T15:42:43.469Z,1.20
2019-02-02T15:45:15.077Z,1.10
2019-02-02T15:47:43.748Z,1.10
2019-02-02T15:50:14.818Z,1.10
2019-02-02T15:52:43.467Z,1.10
2019-02-02T15:55:14.838Z,1.10
2019-02-02T15:57:43.514Z,1.10
2019-02-02T16:00:15.458Z,1.10
2019-02-02T16:02:44.113Z,1.10
2019-02-02T16:05:15.445Z,1.00
2019-02-02T16:07:44.104Z,1.00
2019-02-02T16:10:15.715Z,1.00
2019-02-02T16:12:44.663Z,1.00
2019-02-02T16:15:13.361Z,0.90
2019-02-02T16:17:42.050Z,0.90
2019-02-02T16:20:22.140Z,0.80
2019-02-02T16:22:50.959Z,0.80
2019-02-02T16:25:19.710Z,0.80
2019-02-02T16:27:48.391Z,0.80
2019-02-02T16:30:19.775Z,0.80
2019-02-02T16:32:48.430Z,0.70
2019-02-02T16:35:17.191Z,0.70
2019-02-02T16:37:45.980Z,0.80
2019-02-02T16:40:25.961Z,0.70
2019-02-02T16:42:54.810Z,0.70
2019-02-02T16:45:28.426Z,0.70
2019-02-02T16:47:57.081Z,0.70
2019-02-02T16:50:25.850Z,0.70
2019-02-02T16:52:54.525Z,0.50
2019-02-02T16:55:23.306Z,0.60
2019-02-02T16:57:52.160Z,0.50
2019-02-02T17:00:25.561Z,0.50
2019-02-02T17:02:54.346Z,0.60
2019-02-02T17:05:23.005Z,0.80
2019-02-02T17:07:51.810Z,0.90
2019-02-02T17:10:26.542Z,1.20
2019-02-02T17:12:55.459Z,1.30
2019-02-02T17:15:24.357Z,1.40
2019-02-02T17:17:53.029Z,1.40
2019-02-02T17:20:33.397Z,1.10
2019-02-02T17:23:02.146Z,1.00
2019-02-02T17:25:30.797Z,1.30
2019-02-02T17:27:59.453Z,1.50
2019-02-02T17:30:28.253Z,1.40
2019-02-02T17:33:00.129Z,1.40
2019-02-02T17:35:28.815Z,1.50
2019-02-02T17:37:57.472Z,1.10
2019-02-02T17:40:30.146Z,0.90
2019-02-02T17:42:58.918Z,0.90
2019-02-02T17:45:27.566Z,0.90
2019-02-02T17:47:56.261Z,1.10
2019-02-02T17:50:29.833Z,1.10
2019-02-02T17:52:58.507Z,1.00
2019-02-02T17:55:27.161Z,1.40
2019-02-02T17:57:55.834Z,1.60
2019-02-02T18:00:40.642Z,1.50
2019-02-02T18:03:09.422Z,1.20
2019-02-02T18:05:38.053Z,1.00
2019-02-02T18:08:06.851Z,0.90
2019-02-02T18:10:35.498Z,0.90
2019-02-02T18:13:04.285Z,0.80
2019-02-02T18:15:32.940Z,0.80
2019-02-02T18:18:02.537Z,0.90
2019-02-02T18:20:31.361Z,0.90
2019-02-02T18:23:00.048Z,1.10
2019-02-02T18:25:28.724Z,0.90
2019-02-02T18:27:57.378Z,0.80
2019-02-02T18:30:27.767Z,0.80
2019-02-02T18:32:56.757Z,0.70
2019-02-02T18:35:25.417Z,0.70
2019-02-02T18:37:54.089Z,0.60
2019-02-02T18:40:25.156Z,0.70
2019-02-02T18:42:54.182Z,0.80
2019-02-02T18:45:30.107Z,0.80
2019-02-02T18:47:58.755Z,0.70
2019-02-02T18:50:27.410Z,0.70
2019-02-02T18:52:57.995Z,0.70
2019-02-02T18:55:35.654Z,0.80
2019-02-02T18:58:04.742Z,0.80
2019-02-02T19:00:33.570Z,1.00
2019-02-02T19:03:02.280Z,1.10
2019-02-02T19:05:30.933Z,1.40
2019-02-02T19:07:59.726Z,1.10
2019-02-02T19:10:31.377Z,1.00
2019-02-02T19:13:00.051Z,0.80
2019-02-02T19:15:28.926Z,0.80
2019-02-02T19:17:57.622Z,0.90
2019-02-02T19:20:26.382Z,1.00
2019-02-02T19:22:57.282Z,1.30
2019-02-02T19:25:25.777Z,1.60
2019-02-02T19:27:54.426Z,1.70
2019-02-02T19:30:33.585Z,1.70
2019-02-02T19:33:02.286Z,1.70
2019-02-02T19:35:30.941Z,1.40
2019-02-02T19:37:59.729Z,1.10
2019-02-02T19:40:28.495Z,1.00
2019-02-02T19:42:57.211Z,1.20
2019-02-02T19:45:27.209Z,1.50
2019-02-02T19:47:55.964Z,1.50
2019-02-02T19:50:26.206Z,1.80
2019-02-02T19:52:55.003Z,1.80
2019-02-02T19:55:23.830Z,1.60
2019-02-02T19:57:52.713Z,1.20
2019-02-02T20:00:29.950Z,1.20
2019-02-02T20:02:58.605Z,1.30
2019-02-02T20:05:28.958Z,1.50
2019-02-02T20:07:57.665Z,1.40
2019-02-02T20:10:26.486Z,1.40
2019-02-02T20:12:55.165Z,1.30
2019-02-02T20:15:25.626Z,1.30
2019-02-02T20:17:54.298Z,1.10
2019-02-02T20:20:28.099Z,1.40
2019-02-02T20:22:57.160Z,1.30
2019-02-02T20:25:25.933Z,1.20
2019-02-02T20:27:54.598Z,1.20
2019-02-02T20:30:28.242Z,1.20
2019-02-02T20:32:57.216Z,1.50
2019-02-02T20:35:25.896Z,1.20
2019-02-02T20:37:54.600Z,1.10
2019-02-02T20:40:25.026Z,1.00
2019-02-02T20:42:53.894Z,1.00
2019-02-02T20:45:25.371Z,1.20
2019-02-02T20:47:54.084Z,1.50
2019-02-02T20:50:22.826Z,1.60
2019-02-02T20:52:51.500Z,1.70
2019-02-02T20:55:22.457Z,1.60
2019-02-02T20:57:51.533Z,1.40
2019-02-02T21:00:28.388Z,1.20
2019-02-02T21:02:57.325Z,1.10
2019-02-02T21:05:26.002Z,1.20
2019-02-02T21:07:54.646Z,1.00
2019-02-02T21:10:24.889Z,0.90
2019-02-02T21:12:53.554Z,0.70
2019-02-02T21:15:22.204Z,0.70
2019-02-02T21:17:50.875Z,0.70
2019-02-02T21:20:25.034Z,0.70
2019-02-02T21:22:54.273Z,0.70
2019-02-02T21:25:23.970Z,0.70
2019-02-02T21:27:52.714Z,0.70
2019-02-02T21:30:23.504Z,0.60
2019-02-02T21:32:52.169Z,0.70
2019-02-02T21:35:21.241Z,0.60
2019-02-02T21:37:49.894Z,0.70
2019-02-02T21:40:21.118Z,0.60
2019-02-02T21:42:49.796Z,0.70
2019-02-02T21:45:18.577Z,0.70
2019-02-02T21:47:47.238Z,0.80
2019-02-02T21:50:20.996Z,0.80
2019-02-02T21:52:49.953Z,0.70
2019-02-02T21:55:26.281Z,0.80
2019-02-02T21:57:54.924Z,0.90
2019-02-02T22:00:29.426Z,1.20
2019-02-02T22:02:58.076Z,1.30
2019-02-02T22:05:26.734Z,1.00
2019-02-02T22:07:55.811Z,1.00
2019-02-02T22:10:24.457Z,1.00
2019-02-02T22:12:53.614Z,1.10
2019-02-02T22:15:24.648Z,0.90
2019-02-02T22:17:53.317Z,1.10
2019-02-02T22:20:22.117Z,1.30
2019-02-02T22:22:50.799Z,1.30
2019-02-02T22:25:30.658Z,1.30
2019-02-02T22:27:59.333Z,1.20
2019-02-02T22:30:33.502Z,1.00
2019-02-02T22:33:02.199Z,1.00
2019-02-02T22:35:30.849Z,0.90
2019-02-02T22:37:59.931Z,1.10
2019-02-02T22:40:28.981Z,0.90
2019-02-02T22:42:57.621Z,0.90
2019-02-02T22:45:26.295Z,0.80
2019-02-02T22:47:54.967Z,0.70
2019-02-02T22:50:25.508Z,0.70
2019-02-02T22:52:54.487Z,0.70
2019-02-02T22:55:24.530Z,0.70
2019-02-02T22:57:53.516Z,0.70
2019-02-02T23:00:56.812Z,0.70
2019-02-02T23:03:37.828Z,0.70
2019-02-02T23:06:39.263Z,0.70
2019-02-02T23:09:40.757Z,0.70
2019-02-02T23:12:24.375Z,0.60
2019-02-02T23:15:08.092Z,0.60
2019-02-02T23:17:36.777Z,0.70
2019-02-02T23:20:08.113Z,0.70
2019-02-02T23:22:36.761Z,0.70
2019-02-02T23:25:08.374Z,0.80
2019-02-02T23:27:37.022Z,0.80
2019-02-02T23:30:08.639Z,0.90
2019-02-02T23:32:37.290Z,1.10
2019-02-02T23:35:06.045Z,1.00
2019-02-02T23:37:34.719Z,1.10
2019-02-02T23:40:03.765Z,1.00
2019-02-02T23:42:32.438Z,1.00
2019-02-02T23:45:01.567Z,1.00
2019-02-02T23:47:30.229Z,0.90
2019-02-02T23:49:58.897Z,0.80
2019-02-02T23:52:27.581Z,0.70
2019-02-02T23:54:56.237Z,0.70
2019-02-02T23:57:24.910Z,0.70
2019-02-02T23:59:53.963Z,0.70
